Time;durP1;ratioP1;P1;durP2;ratioP2;P2;SDS_P1;SDS_P2;PMS_P1;PMS_P2;Temp;Humidity;BMP_temperature;BMP_pressure;BME280_temperature;BME280_humidity;BME280_pressure;Samples;Min_cycle;Max_cycle;Signal;HPM_P1;HPM_P2
2022/10/09 00:00:44;;;;;;;12.10;5.32;;;;;;;;;;4897204;29;20072;-64
2022/10/09 00:03:11;;;;;;;7.45;4.72;;;;;;;;;;4896611;29;20143;-65
2022/10/09 00:05:37;;;;;;;6.80;4.75;;;;;;;;;;4897735;29;20131;-63
2022/10/09 00:08:04;;;;;;;7.78;4.90;;;;;;;;;;4897330;29;20059;-64
2022/10/09 00:10:30;;;;;;;8.00;4.90;;;;;;;;;;4914469;29;20045;-63
2022/10/09 00:12:57;;;;;;;9.88;4.75;;;;;;;;;;4915717;29;20056;-63
2022/10/09 00:15:23;;;;;;;12.60;4.50;;;;;;;;;;4912559;29;20068;-64
2022/10/09 00:17:49;;;;;;;6.30;4.07;;;;;;;;;;4912750;29;20056;-63
2022/10/09 00:20:16;;;;;;;6.47;3.90;;;;;;;;;;4912649;29;20058;-63
2022/10/09 00:22:42;;;;;;;8.80;5.05;;;;;;;;;;4914876;29;20048;-64
2022/10/09 00:25:09;;;;;;;6.13;4.10;;;;;;;;;;4914658;29;20048;-63
2022/10/09 00:27:35;;;;;;;12.55;4.32;;;;;;;;;;4915672;29;20076;-63
2022/10/09 00:30:01;;;;;;;10.77;5.50;;;;;;;;;;4911992;29;20049;-63
2022/10/09 00:32:28;;;;;;;15.57;5.80;;;;;;;;;;4898704;29;20076;-64
2022/10/09 00:34:54;;;;;;;8.15;5.40;;;;;;;;;;4897663;29;20697;-64
2022/10/09 00:37:20;;;;;;;8.60;4.93;;;;;;;;;;4896244;29;20148;-63
2022/10/09 00:39:46;;;;;;;7.53;4.90;;;;;;;;;;4897252;29;20058;-63
2022/10/09 00:42:13;;;;;;;10.13;4.35;;;;;;;;;;4897041;29;20131;-63
2022/10/09 00:44:47;;;;;;;13.60;4.90;;;;;;;;;;4897654;29;20096;-63
2022/10/09 00:47:19;;;;;;;7.43;4.22;;;;;;;;;;4897718;29;20490;-63
2022/10/09 00:49:46;;;;;;;6.75;4.20;;;;;;;;;;4898823;29;20044;-64
2022/10/09 00:52:12;;;;;;;10.48;3.92;;;;;;;;;;4906970;29;20096;-64
2022/10/09 00:54:39;;;;;;;8.40;4.38;;;;;;;;;;4906470;29;20135;-62
2022/10/09 00:57:06;;;;;;;9.27;4.22;;;;;;;;;;4907214;29;20080;-64
2022/10/09 00:59:32;;;;;;;8.70;4.22;;;;;;;;;;4906909;29;20124;-63
2022/10/09 01:01:59;;;;;;;7.80;3.92;;;;;;;;;;4905998;29;20104;-64
2022/10/09 01:04:25;;;;;;;8.32;4.45;;;;;;;;;;4907870;29;20077;-64
2022/10/09 01:07:07;;;;;;;8.70;4.57;;;;;;;;;;4908461;29;20068;-63
2022/10/09 01:09:52;;;;;;;8.23;4.50;;;;;;;;;;4908599;29;20079;-64
2022/10/09 01:12:22;;;;;;;7.13;4.85;;;;;;;;;;4908043;29;20084;-64
2022/10/09 01:14:57;;;;;;;6.20;4.38;;;;;;;;;;4909727;29;20099;-64
2022/10/09 01:17:30;;;;;;;7.40;4.82;;;;;;;;;;4908514;29;20131;-64
2022/10/09 01:19:56;;;;;;;7.20;4.55;;;;;;;;;;4905319;29;20060;-64
2022/10/09 01:22:35;;;;;;;9.48;4.85;;;;;;;;;;4896738;29;20072;-66
2022/10/09 01:25:06;;;;;;;9.90;4.78;;;;;;;;;;4897010;29;20438;-63
2022/10/09 01:27:34;;;;;;;7.90;4.75;;;;;;;;;;4897442;29;20045;-64
2022/10/09 01:30:02;;;;;;;9.38;5.10;;;;;;;;;;4896998;29;20417;-63
2022/10/09 01:32:30;;;;;;;10.02;5.05;;;;;;;;;;4896779;29;20076;-64
2022/10/09 01:34:57;;;;;;;8.85;4.32;;;;;;;;;;4897082;29;20510;-65
2022/10/09 01:37:23;;;;;;;8.73;4.05;;;;;;;;;;4896806;29;20076;-65
2022/10/09 01:39:51;;;;;;;9.05;4.70;;;;;;;;;;4896578;29;20079;-65
2022/10/09 01:42:17;;;;;;;7.35;4.55;;;;;;;;;;4896453;29;20119;-65
2022/10/09 01:44:44;;;;;;;6.68;4.35;;;;;;;;;;4896579;29;20593;-64
2022/10/09 01:47:14;;;;;;;8.93;4.53;;;;;;;;;;4895669;29;20100;-64
2022/10/09 01:49:47;;;;;;;5.93;3.90;;;;;;;;;;4896580;29;20044;-65
2022/10/09 01:52:24;;;;;;;6.50;3.80;;;;;;;;;;4895813;29;20123;-65
2022/10/09 01:55:09;;;;;;;8.55;4.43;;;;;;;;;;4896717;29;20124;-65
2022/10/09 01:57:38;;;;;;;9.35;3.72;;;;;;;;;;4896620;29;20554;-64
2022/10/09 02:00:07;;;;;;;10.13;4.50;;;;;;;;;;4896114;29;20566;-65
2022/10/09 02:02:37;;;;;;;7.28;4.10;;;;;;;;;;4895603;29;20060;-65
2022/10/09 02:05:04;;;;;;;6.97;4.60;;;;;;;;;;4897510;29;20092;-65
2022/10/09 02:07:31;;;;;;;8.00;4.82;;;;;;;;;;4899836;29;20104;-65
2022/10/09 02:09:59;;;;;;;5.75;4.32;;;;;;;;;;4899461;29;20040;-65
2022/10/09 02:12:26;;;;;;;9.65;4.45;;;;;;;;;;4899342;29;20127;-65
2022/10/09 02:14:52;;;;;;;5.63;4.15;;;;;;;;;;4899579;29;20123;-64
2022/10/09 02:17:22;;;;;;;6.75;3.65;;;;;;;;;;4899716;29;20068;-64
2022/10/09 02:20:00;;;;;;;7.63;4.50;;;;;;;;;;4899519;29;20072;-64
2022/10/09 02:22:28;;;;;;;6.22;4.13;;;;;;;;;;4899341;29;20474;-64
2022/10/09 02:24:56;;;;;;;7.18;4.25;;;;;;;;;;4899469;29;20131;-65
2022/10/09 02:27:23;;;;;;;4.50;4.05;;;;;;;;;;4899509;29;20127;-65
2022/10/09 02:29:51;;;;;;;8.88;4.55;;;;;;;;;;4899384;29;20060;-64
2022/10/09 02:32:17;;;;;;;6.88;4.15;;;;;;;;;;4898856;29;20045;-64
2022/10/09 02:34:43;;;;;;;6.63;3.78;;;;;;;;;;4899430;29;20056;-64
2022/10/09 02:37:10;;;;;;;8.50;4.35;;;;;;;;;;4899493;29;20049;-64
2022/10/09 02:39:36;;;;;;;4.95;3.88;;;;;;;;;;4899276;29;20048;-64
2022/10/09 02:42:03;;;;;;;8.25;4.70;;;;;;;;;;4898456;29;20104;-64
2022/10/09 02:44:29;;;;;;;6.95;3.78;;;;;;;;;;4899294;29;20051;-64
2022/10/09 02:46:56;;;;;;;7.20;4.22;;;;;;;;;;4899106;29;20041;-64
2022/10/09 02:49:22;;;;;;;5.05;4.10;;;;;;;;;;4899187;29;20076;-63
2022/10/09 02:51:48;;;;;;;6.93;4.35;;;;;;;;;;4898548;29;20056;-64
2022/10/09 02:54:15;;;;;;;9.57;5.30;;;;;;;;;;4882199;29;20049;-64
2022/10/09 02:56:41;;;;;;;5.13;4.10;;;;;;;;;;4898975;29;20052;-63
2022/10/09 02:59:08;;;;;;;5.82;3.75;;;;;;;;;;4898756;29;20092;-63
2022/10/09 03:01:34;;;;;;;9.25;3.72;;;;;;;;;;4898266;29;20085;-64
2022/10/09 03:04:01;;;;;;;8.02;4.18;;;;;;;;;;4898928;29;20045;-64
2022/10/09 03:06:27;;;;;;;10.70;3.45;;;;;;;;;;4899108;29;20112;-63
2022/10/09 03:08:54;;;;;;;8.68;3.60;;;;;;;;;;4898958;29;20077;-63
2022/10/09 03:11:22;;;;;;;5.22;3.33;;;;;;;;;;4898361;29;20166;-63
2022/10/09 03:13:49;;;;;;;6.95;3.97;;;;;;;;;;4898839;29;20064;-64
2022/10/09 03:16:17;;;;;;;5.07;3.65;;;;;;;;;;4898262;29;20049;-63
2022/10/09 03:18:44;;;;;;;6.15;3.60;;;;;;;;;;4898841;29;20083;-63
2022/10/09 03:21:11;;;;;;;11.15;3.88;;;;;;;;;;4898234;29;20100;-64
2022/10/09 03:23:38;;;;;;;10.65;3.88;;;;;;;;;;4898925;29;20195;-63
2022/10/09 03:26:06;;;;;;;7.03;3.63;;;;;;;;;;4898799;29;20116;-64
2022/10/09 03:28:36;;;;;;;4.72;3.70;;;;;;;;;;4899183;29;20096;-63
2022/10/09 03:31:03;;;;;;;5.93;3.75;;;;;;;;;;4897263;29;20048;-63
2022/10/09 03:33:30;;;;;;;7.72;3.92;;;;;;;;;;4898942;29;20120;-63
2022/10/09 03:35:56;;;;;;;8.75;3.85;;;;;;;;;;4898386;29;20052;-63
2022/10/09 03:38:23;;;;;;;9.40;4.22;;;;;;;;;;4898376;29;20104;-63
2022/10/09 03:40:49;;;;;;;5.10;3.33;;;;;;;;;;4898118;29;20048;-63
2022/10/09 03:43:16;;;;;;;13.68;4.13;;;;;;;;;;4898064;29;20637;-64
2022/10/09 03:45:42;;;;;;;6.95;4.32;;;;;;;;;;4896856;29;20112;-63
2022/10/09 03:48:12;;;;;;;7.13;3.70;;;;;;;;;;4898128;29;20041;-64
2022/10/09 03:50:40;;;;;;;6.40;3.78;;;;;;;;;;4897415;29;20040;-64
2022/10/09 03:53:07;;;;;;;8.65;3.97;;;;;;;;;;4897903;29;20044;-62
2022/10/09 03:55:34;;;;;;;9.35;4.15;;;;;;;;;;4897982;29;20418;-64
2022/10/09 03:58:01;;;;;;;9.75;4.25;;;;;;;;;;4897835;29;20072;-63
2022/10/09 04:03:15;;;;;;;5.65;3.63;;;;;;;;;;5027469;23;20096;-63
2022/10/09 04:05:42;;;;;;;5.95;3.75;;;;;;;;;;4897589;29;20037;-62
2022/10/09 04:08:08;;;;;;;6.35;4.13;;;;;;;;;;4897862;29;20045;-62
2022/10/09 04:10:35;;;;;;;4.32;3.47;;;;;;;;;;4897083;29;20096;-63
2022/10/09 04:13:01;;;;;;;9.85;4.22;;;;;;;;;;4897303;29;20044;-63
2022/10/09 04:15:27;;;;;;;6.80;3.95;;;;;;;;;;4896341;29;20091;-62
2022/10/09 04:17:54;;;;;;;8.07;3.75;;;;;;;;;;4897764;29;20060;-62
2022/10/09 04:20:21;;;;;;;7.25;4.20;;;;;;;;;;4896830;29;20121;-62
2022/10/09 04:22:47;;;;;;;8.18;3.70;;;;;;;;;;4897286;29;20045;-63
2022/10/09 04:25:14;;;;;;;4.55;3.58;;;;;;;;;;4897520;29;20090;-62
2022/10/09 04:27:40;;;;;;;7.00;3.67;;;;;;;;;;4896865;29;20044;-62
2022/10/09 04:30:07;;;;;;;9.13;4.10;;;;;;;;;;4896716;29;20077;-62
2022/10/09 04:32:34;;;;;;;8.63;3.92;;;;;;;;;;4897370;29;20458;-62
2022/10/09 04:35:00;;;;;;;4.68;3.63;;;;;;;;;;4897337;29;20044;-63
2022/10/09 04:37:26;;;;;;;7.72;3.83;;;;;;;;;;4897342;29;20048;-62
2022/10/09 04:39:53;;;;;;;6.25;3.72;;;;;;;;;;4897304;29;20052;-62
2022/10/09 04:42:19;;;;;;;5.70;4.10;;;;;;;;;;4896470;29;20051;-60
2022/10/09 04:44:45;;;;;;;8.00;3.63;;;;;;;;;;4897077;29;20049;-60
2022/10/09 04:47:12;;;;;;;7.85;3.80;;;;;;;;;;4896819;29;20112;-61
2022/10/09 04:49:38;;;;;;;5.75;3.75;;;;;;;;;;4897048;29;20561;-63
2022/10/09 04:52:05;;;;;;;5.95;3.55;;;;;;;;;;4896320;29;20037;-61
2022/10/09 04:54:31;;;;;;;7.88;3.80;;;;;;;;;;4897125;29;20100;-64
2022/10/09 04:56:57;;;;;;;7.18;4.35;;;;;;;;;;4895777;29;20052;-64
2022/10/09 04:59:24;;;;;;;6.70;4.38;;;;;;;;;;4896872;29;20056;-64
2022/10/09 05:01:50;;;;;;;5.28;4.10;;;;;;;;;;4896270;29;20122;-65
2022/10/09 05:04:16;;;;;;;6.22;4.25;;;;;;;;;;4897141;29;20048;-63
2022/10/09 05:06:43;;;;;;;5.85;3.70;;;;;;;;;;4895699;29;20151;-62
2022/10/09 05:09:09;;;;;;;5.38;4.07;;;;;;;;;;4897113;29;20138;-63
2022/10/09 05:11:36;;;;;;;9.75;4.85;;;;;;;;;;4896087;29;20048;-62
2022/10/09 05:14:07;;;;;;;5.60;3.85;;;;;;;;;;4897058;29;20044;-61
2022/10/09 05:16:34;;;;;;;4.90;3.78;;;;;;;;;;4896834;29;20100;-63
2022/10/09 05:19:20;;;;;;;6.45;4.25;;;;;;;;;;4896823;29;20549;-62
2022/10/09 05:21:46;;;;;;;4.68;4.18;;;;;;;;;;4896027;29;20525;-63
2022/10/09 05:24:13;;;;;;;4.57;3.92;;;;;;;;;;4896698;29;20063;-62
2022/10/09 05:26:39;;;;;;;9.25;4.03;;;;;;;;;;4896522;29;20113;-63
2022/10/09 05:29:06;;;;;;;6.32;4.20;;;;;;;;;;4896700;29;20494;-63
2022/10/09 05:31:32;;;;;;;4.30;3.90;;;;;;;;;;4895949;29;20045;-63
2022/10/09 05:33:59;;;;;;;6.25;3.80;;;;;;;;;;4896720;29;20041;-63
2022/10/09 05:36:26;;;;;;;4.68;3.80;;;;;;;;;;4896633;29;20052;-63
2022/10/09 05:38:52;;;;;;;6.05;4.30;;;;;;;;;;4897572;29;20466;-65
2022/10/09 05:41:18;;;;;;;9.25;3.88;;;;;;;;;;4898311;29;20501;-65
2022/10/09 05:43:46;;;;;;;9.75;6.88;;;;;;;;;;4900232;29;20041;-65
2022/10/09 05:46:14;;;;;;;12.98;8.05;;;;;;;;;;4900060;29;20479;-64
2022/10/09 05:48:41;;;;;;;9.63;5.50;;;;;;;;;;4900312;29;20040;-64
2022/10/09 05:51:08;;;;;;;9.40;4.80;;;;;;;;;;4899816;29;20114;-65
2022/10/09 05:53:34;;;;;;;7.88;4.68;;;;;;;;;;4898675;29;20560;-62
2022/10/09 05:56:17;;;;;;;4.82;4.20;;;;;;;;;;4899702;29;20048;-65
2022/10/09 05:58:49;;;;;;;5.80;3.70;;;;;;;;;;4900015;29;20602;-64
2022/10/09 06:01:15;;;;;;;5.38;3.63;;;;;;;;;;4898665;29;20465;-64
2022/10/09 06:03:41;;;;;;;5.68;4.63;;;;;;;;;;4900039;29;20108;-65
2022/10/09 06:06:08;;;;;;;6.45;4.50;;;;;;;;;;4899855;29;20104;-65
2022/10/09 06:08:35;;;;;;;5.38;3.50;;;;;;;;;;4899639;29;20108;-64
2022/10/09 06:11:12;;;;;;;7.88;4.10;;;;;;;;;;4899112;29;20104;-64
2022/10/09 06:13:39;;;;;;;9.68;5.20;;;;;;;;;;4899411;29;20051;-64
2022/10/09 06:16:05;;;;;;;8.90;4.78;;;;;;;;;;4898029;29;20072;-64
2022/10/09 06:18:32;;;;;;;8.63;4.70;;;;;;;;;;4898527;29;20053;-63
2022/10/09 06:20:59;;;;;;;9.88;4.78;;;;;;;;;;4898628;29;20053;-63
2022/10/09 06:23:26;;;;;;;7.10;4.85;;;;;;;;;;4897345;29;20052;-63
2022/10/09 06:25:53;;;;;;;5.05;3.80;;;;;;;;;;4897493;29;20045;-63
2022/10/09 06:28:20;;;;;;;6.47;3.90;;;;;;;;;;4899257;29;20037;-63
2022/10/09 06:30:47;;;;;;;10.40;4.93;;;;;;;;;;4898725;29;20063;-62
2022/10/09 06:33:13;;;;;;;10.40;4.47;;;;;;;;;;4897993;29;20040;-62
2022/10/09 06:35:39;;;;;;;8.30;4.28;;;;;;;;;;4899291;29;20059;-65
2022/10/09 06:38:06;;;;;;;12.32;6.40;;;;;;;;;;4899080;29;20104;-64
2022/10/09 06:40:36;;;;;;;6.20;3.88;;;;;;;;;;4897318;29;20052;-64
2022/10/09 06:43:03;;;;;;;6.63;3.88;;;;;;;;;;4898888;29;20044;-64
2022/10/09 06:45:30;;;;;;;14.95;7.45;;;;;;;;;;4898975;29;20045;-63
2022/10/09 06:47:56;;;;;;;11.88;8.50;;;;;;;;;;4898973;29;20045;-63
2022/10/09 06:50:22;;;;;;;7.90;5.03;;;;;;;;;;4897798;29;20081;-63
2022/10/09 06:52:49;;;;;;;11.05;5.40;;;;;;;;;;4898777;29;20036;-64
2022/10/09 06:55:16;;;;;;;6.70;4.35;;;;;;;;;;4898948;29;20048;-63
2022/10/09 06:57:42;;;;;;;7.05;4.20;;;;;;;;;;4898762;29;20382;-63
2022/10/09 07:00:09;;;;;;;4.78;3.83;;;;;;;;;;4897917;29;20458;-64
2022/10/09 07:02:36;;;;;;;5.82;3.92;;;;;;;;;;4898559;29;20139;-64
2022/10/09 07:05:09;;;;;;;7.00;5.00;;;;;;;;;;4898617;29;20045;-62
2022/10/09 07:07:38;;;;;;;5.93;4.65;;;;;;;;;;4898450;29;20454;-63
2022/10/09 07:10:05;;;;;;;7.68;4.60;;;;;;;;;;4897679;29;20084;-62
2022/10/09 07:12:33;;;;;;;7.55;4.03;;;;;;;;;;4898302;29;20048;-62
2022/10/09 07:14:59;;;;;;;6.85;4.20;;;;;;;;;;4896972;29;20045;-62
2022/10/09 07:17:26;;;;;;;8.98;3.88;;;;;;;;;;4898157;29;20097;-64
2022/10/09 07:19:52;;;;;;;6.13;4.13;;;;;;;;;;4898375;29;20048;-64
2022/10/09 07:22:19;;;;;;;5.55;3.33;;;;;;;;;;4897685;29;20439;-66
2022/10/09 07:24:52;;;;;;;6.90;4.20;;;;;;;;;;4898359;29;20072;-66
2022/10/09 07:27:18;;;;;;;4.70;3.63;;;;;;;;;;4897123;29;20044;-66
2022/10/09 07:29:44;;;;;;;5.78;3.72;;;;;;;;;;4896869;29;20100;-67
2022/10/09 07:32:11;;;;;;;7.10;4.25;;;;;;;;;;4897840;29;20045;-65
2022/10/09 07:34:37;;;;;;;5.63;3.97;;;;;;;;;;4897096;29;20076;-66
2022/10/09 07:37:04;;;;;;;12.55;4.40;;;;;;;;;;4898313;29;20494;-67
2022/10/09 07:39:30;;;;;;;7.05;3.45;;;;;;;;;;4897065;29;20053;-66
2022/10/09 07:41:56;;;;;;;5.45;4.13;;;;;;;;;;4896314;29;20085;-66
2022/10/09 07:44:23;;;;;;;6.45;4.00;;;;;;;;;;4897146;29;20056;-65
2022/10/09 07:46:50;;;;;;;7.55;4.38;;;;;;;;;;4898115;29;20382;-64
2022/10/09 07:49:16;;;;;;;7.50;4.55;;;;;;;;;;4896722;29;20044;-66
2022/10/09 07:51:44;;;;;;;9.65;4.82;;;;;;;;;;4896041;29;20100;-66
2022/10/09 07:54:10;;;;;;;9.80;5.13;;;;;;;;;;4896980;29;20451;-66
2022/10/09 07:56:39;;;;;;;9.98;6.45;;;;;;;;;;4897871;29;20478;-66
2022/10/09 07:59:07;;;;;;;11.60;7.30;;;;;;;;;;4896824;29;20108;-64
2022/10/09 08:01:34;;;;;;;11.00;6.70;;;;;;;;;;4896171;29;20041;-64
2022/10/09 08:04:01;;;;;;;8.68;4.95;;;;;;;;;;4897673;29;20454;-65
2022/10/09 08:06:28;;;;;;;7.80;4.93;;;;;;;;;;4897372;29;20397;-64
2022/10/09 08:08:55;;;;;;;5.25;4.68;;;;;;;;;;4896147;29;20100;-64
2022/10/09 08:11:23;;;;;;;6.55;4.38;;;;;;;;;;4895849;29;20461;-66
2022/10/09 08:13:49;;;;;;;9.57;5.00;;;;;;;;;;4897730;29;20049;-65
2022/10/09 08:16:16;;;;;;;8.90;5.90;;;;;;;;;;4897508;29;20113;-65
2022/10/09 08:18:43;;;;;;;8.00;4.70;;;;;;;;;;4896117;29;20068;-66
2022/10/09 08:21:17;;;;;;;11.32;5.60;;;;;;;;;;4896822;29;20041;-66
2022/10/09 08:24:02;;;;;;;6.32;4.40;;;;;;;;;;4896678;29;20108;-65
2022/10/09 08:26:43;;;;;;;;;;;;;;;;;;4882283;29;20044;-64
2022/10/09 08:29:12;;;;;;;7.25;4.63;;;;;;;;;;4897438;29;20295;-65
2022/10/09 08:31:40;;;;;;;6.68;4.63;;;;;;;;;;4895435;29;20139;-65
2022/10/09 08:34:06;;;;;;;8.20;5.35;;;;;;;;;;4896204;29;20550;-65
2022/10/09 08:36:33;;;;;;;8.20;5.47;;;;;;;;;;4895974;29;20108;-65
2022/10/09 08:38:59;;;;;;;6.30;4.57;;;;;;;;;;4896073;29;20108;-65
2022/10/09 08:41:32;;;;;;;7.57;5.00;;;;;;;;;;4896791;29;20051;-64
2022/10/09 08:44:03;;;;;;;10.63;5.10;;;;;;;;;;4896056;29;20120;-64
2022/10/09 08:46:51;;;;;;;7.28;4.32;;;;;;;;;;4897029;29;20486;-65
2022/10/09 08:49:21;;;;;;;9.57;4.50;;;;;;;;;;4880936;29;20045;-66
2022/10/09 08:51:48;;;;;;;6.35;4.53;;;;;;;;;;4895571;29;20072;-65
2022/10/09 08:54:21;;;;;;;13.38;5.00;;;;;;;;;;4895821;29;20104;-66
2022/10/09 08:56:48;;;;;;;8.35;5.15;;;;;;;;;;4896218;29;20045;-66
2022/10/09 08:59:14;;;;;;;7.22;4.05;;;;;;;;;;4865026;29;20549;-66
2022/10/09 09:01:48;;;;;;;13.40;6.60;;;;;;;;;;4895522;29;20059;-66
2022/10/09 09:04:33;;;;;;;10.57;5.60;;;;;;;;;;4896051;29;20059;-66
2022/10/09 09:07:18;;;;;;;10.10;5.35;;;;;;;;;;4897273;29;20565;-67
2022/10/09 09:09:53;;;;;;;6.85;4.60;;;;;;;;;;4899158;29;20124;-65
2022/10/09 09:12:19;;;;;;;9.70;4.00;;;;;;;;;;4895380;29;20040;-66
2022/10/09 09:14:52;;;;;;;8.63;4.30;;;;;;;;;;4898480;29;20048;-65
2022/10/09 09:17:21;;;;;;;8.95;4.15;;;;;;;;;;4899809;29;20498;-66
2022/10/09 09:19:54;;;;;;;8.90;3.22;;;;;;;;;;4902262;29;20112;-66
2022/10/09 09:22:22;;;;;;;6.53;3.15;;;;;;;;;;4899377;29;20060;-67
2022/10/09 09:24:53;;;;;;;5.78;3.40;;;;;;;;;;4899787;29;20048;-67
2022/10/09 09:27:23;;;;;;;4.70;2.78;;;;;;;;;;4900822;29;20520;-67
2022/10/09 09:30:02;;;;;;;5.72;2.80;;;;;;;;;;4900911;29;20036;-67
2022/10/09 09:32:29;;;;;;;5.22;2.90;;;;;;;;;;4900380;29;20040;-67
2022/10/09 09:35:07;;;;;;;29.45;16.40;;;;;;;;;;4899052;29;20048;-67
2022/10/09 09:37:33;;;;;;;9.70;5.03;;;;;;;;;;4899204;29;20061;-66
2022/10/09 09:39:59;;;;;;;5.47;3.20;;;;;;;;;;4899257;29;20153;-67
2022/10/09 09:42:46;;;;;;;5.15;2.70;;;;;;;;;;4900118;29;20056;-67
2022/10/09 09:45:18;;;;;;;6.63;2.70;;;;;;;;;;4900681;29;20049;-67
2022/10/09 09:47:48;;;;;;;5.80;3.10;;;;;;;;;;4900577;29;20077;-67
2022/10/09 09:50:14;;;;;;;4.90;2.42;;;;;;;;;;4900044;29;20052;-66
2022/10/09 09:53:03;;;;;;;4.78;2.55;;;;;;;;;;4902960;29;20417;-66
2022/10/09 09:55:31;;;;;;;3.58;2.47;;;;;;;;;;4903638;29;20462;-64
2022/10/09 09:57:59;;;;;;;7.38;2.72;;;;;;;;;;4905035;29;20104;-66
2022/10/09 10:00:25;;;;;;;7.13;2.67;;;;;;;;;;4902727;29;20532;-66
2022/10/09 10:03:12;;;;;;;5.32;2.65;;;;;;;;;;4885972;29;20501;-66
2022/10/09 10:05:39;;;;;;;6.15;2.47;;;;;;;;;;4900006;29;20059;-66
2022/10/09 10:08:26;;;;;;;4.00;2.22;;;;;;;;;;4899023;29;20125;-66
2022/10/09 10:10:54;;;;;;;5.47;2.22;;;;;;;;;;4899805;29;20052;-67
2022/10/09 10:13:29;;;;;;;2.85;2.20;;;;;;;;;;4900404;29;20062;-66
2022/10/09 10:15:56;;;;;;;2.47;2.15;;;;;;;;;;4900266;29;20105;-67
2022/10/09 10:18:27;;;;;;;4.40;2.45;;;;;;;;;;4900183;29;20055;-67
2022/10/09 10:20:55;;;;;;;4.30;2.15;;;;;;;;;;4898305;29;20053;-67
2022/10/09 10:23:22;;;;;;;4.40;2.42;;;;;;;;;;4900374;29;20037;-67
2022/10/09 10:25:50;;;;;;;3.80;2.08;;;;;;;;;;4899057;29;20051;-66
2022/10/09 10:28:19;;;;;;;3.28;2.05;;;;;;;;;;4898502;29;20041;-66
2022/10/09 10:30:47;;;;;;;3.60;2.30;;;;;;;;;;4899092;29;20433;-64
2022/10/09 10:33:17;;;;;;;3.92;2.33;;;;;;;;;;4899493;29;20048;-65
2022/10/09 10:35:44;;;;;;;6.03;2.20;;;;;;;;;;4898776;29;20044;-65
2022/10/09 10:38:29;;;;;;;4.15;2.47;;;;;;;;;;4899508;29;20044;-65
2022/10/09 10:41:05;;;;;;;5.72;2.80;;;;;;;;;;4898968;29;20100;-65
2022/10/09 10:43:45;;;;;;;4.90;2.83;;;;;;;;;;4898264;29;20077;-66
2022/10/09 10:46:17;;;;;;;5.38;2.58;;;;;;;;;;4899405;29;20096;-65
2022/10/09 10:48:46;;;;;;;3.78;2.20;;;;;;;;;;4899560;29;20072;-66
2022/10/09 10:51:12;;;;;;;3.97;2.17;;;;;;;;;;4898639;29;20048;-66
2022/10/09 10:53:51;;;;;;;4.07;2.08;;;;;;;;;;4899242;29;20433;-66
2022/10/09 10:56:26;;;;;;;3.65;2.00;;;;;;;;;;4899221;29;20045;-66
2022/10/09 10:59:00;;;;;;;5.03;2.20;;;;;;;;;;4899245;29;20569;-66
2022/10/09 11:01:27;;;;;;;3.83;2.30;;;;;;;;;;4881368;29;20561;-66
2022/10/09 11:04:12;;;;;;;6.07;2.28;;;;;;;;;;4897791;29;20099;-66
2022/10/09 11:06:57;;;;;;;6.43;2.58;;;;;;;;;;4898966;29;20123;-66
2022/10/09 11:09:23;;;;;;;5.50;2.03;;;;;;;;;;4897862;29;20056;-66
2022/10/09 11:11:59;;;;;;;5.15;2.42;;;;;;;;;;4898137;29;20395;-66
2022/10/09 11:14:49;;;;;;;3.08;2.00;;;;;;;;;;4897673;29;20053;-66
2022/10/09 11:17:15;;;;;;;4.63;2.05;;;;;;;;;;4893241;29;20053;-66
2022/10/09 11:19:56;;;;;;;2.33;1.98;;;;;;;;;;4897514;29;20056;-65
2022/10/09 11:22:23;;;;;;;5.43;2.13;;;;;;;;;;4898707;29;20497;-64
2022/10/09 11:25:08;;;;;;;2.17;1.55;;;;;;;;;;4898557;29;20100;-65
2022/10/09 11:27:38;;;;;;;3.65;1.85;;;;;;;;;;4897657;29;20100;-64
2022/10/09 11:30:08;;;;;;;2.47;1.77;;;;;;;;;;4896875;29;20044;-64
2022/10/09 11:32:38;;;;;;;4.22;1.98;;;;;;;;;;4897465;29;20052;-64
2022/10/09 11:35:10;;;;;;;3.60;1.77;;;;;;;;;;4897184;29;20497;-65
2022/10/09 11:37:39;;;;;;;3.10;2.10;;;;;;;;;;4896709;29;20059;-65
2022/10/09 11:40:17;;;;;;;3.25;1.73;;;;;;;;;;4896469;29;20041;-65
2022/10/09 11:42:46;;;;;;;5.60;2.25;;;;;;;;;;4897202;29;20569;-65
2022/10/09 11:45:13;;;;;;;4.32;1.85;;;;;;;;;;4898350;29;20094;-66
2022/10/09 11:47:49;;;;;;;2.33;1.60;;;;;;;;;;4898053;29;20188;-65
2022/10/09 11:50:15;;;;;;;3.85;1.45;;;;;;;;;;4897526;29;20055;-65
2022/10/09 11:52:48;;;;;;;3.30;1.40;;;;;;;;;;4896539;29;20132;-65
2022/10/09 11:55:19;;;;;;;4.00;1.50;;;;;;;;;;4898164;29;20447;-65
2022/10/09 11:57:46;;;;;;;3.28;1.73;;;;;;;;;;4897950;29;20052;-66
2022/10/09 12:00:13;;;;;;;2.50;1.40;;;;;;;;;;4896363;29;20052;-65
2022/10/09 12:02:41;;;;;;;12.98;7.38;;;;;;;;;;4897795;29;20041;-65
2022/10/09 12:05:18;;;;;;;4.07;1.70;;;;;;;;;;4898156;29;20063;-65
2022/10/09 12:07:44;;;;;;;3.38;1.60;;;;;;;;;;4898064;29;20049;-65
2022/10/09 12:10:40;;;;;;;3.30;1.60;;;;;;;;;;4897531;29;20096;-66
2022/10/09 12:13:26;;;;;;;4.00;2.17;;;;;;;;;;4889793;29;20497;-65
2022/10/09 12:15:54;;;;;;;3.42;1.67;;;;;;;;;;4896631;29;20052;-65
2022/10/09 12:18:43;;;;;;;3.50;1.40;;;;;;;;;;4896696;29;20107;-65
2022/10/09 12:21:36;;;;;;;3.88;1.60;;;;;;;;;;4895892;29;20048;-66
2022/10/09 12:24:02;;;;;;;5.40;1.73;;;;;;;;;;4895799;29;20692;-64
2022/10/09 12:26:29;;;;;;;2.10;1.40;;;;;;;;;;4895760;29;20053;-66
2022/10/09 12:29:00;;;;;;;2.25;1.50;;;;;;;;;;4896493;29;20503;-64
2022/10/09 12:31:37;;;;;;;1.88;1.67;;;;;;;;;;4896861;29;20505;-64
2022/10/09 12:34:14;;;;;;;3.50;1.60;;;;;;;;;;4896531;29;20045;-64
2022/10/09 12:36:41;;;;;;;2.88;1.65;;;;;;;;;;4896236;29;20099;-64
2022/10/09 12:39:14;;;;;;;2.83;1.50;;;;;;;;;;4896206;29;20052;-65
2022/10/09 12:41:45;;;;;;;2.10;1.83;;;;;;;;;;4897017;29;20049;-64
2022/10/09 12:44:19;;;;;;;2.40;1.80;;;;;;;;;;4897589;29;20049;-65
2022/10/09 12:46:46;;;;;;;3.72;1.55;;;;;;;;;;4896033;29;20040;-64
2022/10/09 12:49:18;;;;;;;4.93;3.42;;;;;;;;;;4895574;29;20040;-65
2022/10/09 12:51:52;;;;;;;3.57;1.90;;;;;;;;;;4896723;29;20048;-65
2022/10/09 12:54:23;;;;;;;3.55;1.52;;;;;;;;;;4897143;29;20048;-64
2022/10/09 12:56:54;;;;;;;2.78;1.58;;;;;;;;;;4896113;29;20046;-66
2022/10/09 12:59:21;;;;;;;4.20;1.33;;;;;;;;;;4897498;29;20119;-65
2022/10/09 13:01:49;;;;;;;3.10;1.42;;;;;;;;;;4895090;29;20108;-65
2022/10/09 13:04:25;;;;;;;3.35;1.40;;;;;;;;;;4895929;29;20063;-65
2022/10/09 13:06:52;;;;;;;1.70;1.10;;;;;;;;;;4895726;29;20091;-66
2022/10/09 13:09:32;;;;;;;3.88;1.52;;;;;;;;;;4895856;29;20466;-65
2022/10/09 13:12:13;;;;;;;3.97;1.83;;;;;;;;;;4895436;29;20040;-65
2022/10/09 13:14:44;;;;;;;2.65;1.48;;;;;;;;;;4897175;29;20041;-65
2022/10/09 13:17:29;;;;;;;4.47;1.92;;;;;;;;;;4897170;29;20045;-65
2022/10/09 13:20:02;;;;;;;3.88;1.50;;;;;;;;;;4897037;29;20219;-65
2022/10/09 13:22:29;;;;;;;2.92;1.60;;;;;;;;;;4895468;29;20060;-65
2022/10/09 13:25:01;;;;;;;4.45;1.67;;;;;;;;;;4896233;29;20048;-65
2022/10/09 13:27:30;;;;;;;3.15;1.42;;;;;;;;;;4895994;29;20048;-64
2022/10/09 13:29:56;;;;;;;2.95;1.58;;;;;;;;;;4896092;29;20112;-65
2022/10/09 13:32:23;;;;;;;3.22;2.00;;;;;;;;;;4895250;29;20059;-64
2022/10/09 13:34:52;;;;;;;7.32;2.20;;;;;;;;;;4897215;29;20104;-67
2022/10/09 13:37:22;;;;;;;2.35;1.80;;;;;;;;;;4895582;29;20056;-64
2022/10/09 13:39:55;;;;;;;1.88;1.50;;;;;;;;;;4880038;29;20052;-65
2022/10/09 13:42:22;;;;;;;;;;;;;;;;;;4896716;29;20052;-66
2022/10/09 13:44:49;;;;;;;6.63;1.60;;;;;;;;;;4895560;29;20273;-65
2022/10/09 13:47:15;;;;;;;2.58;1.83;;;;;;;;;;4895664;29;20417;-66
2022/10/09 13:49:48;;;;;;;4.72;2.15;;;;;;;;;;4895582;29;20568;-66
2022/10/09 13:52:15;;;;;;;2.92;2.15;;;;;;;;;;4896441;29;20045;-66
2022/10/09 13:54:42;;;;;;;3.33;1.70;;;;;;;;;;4895998;29;20048;-65
2022/10/09 13:57:08;;;;;;;2.63;1.70;;;;;;;;;;4896983;29;20048;-65
2022/10/09 13:59:35;;;;;;;2.60;1.95;;;;;;;;;;4897709;29;20060;-66
2022/10/09 14:02:02;;;;;;;2.55;1.90;;;;;;;;;;4899783;29;20056;-66
2022/10/09 14:04:29;;;;;;;3.42;1.73;;;;;;;;;;4900457;29;20056;-65
2022/10/09 14:06:56;;;;;;;5.68;2.40;;;;;;;;;;4900199;29;20067;-66
2022/10/09 14:09:22;;;;;;;3.22;1.65;;;;;;;;;;4900815;29;20048;-65
2022/10/09 14:11:49;;;;;;;3.40;1.70;;;;;;;;;;4901128;29;20103;-65
2022/10/09 14:14:15;;;;;;;5.00;1.80;;;;;;;;;;4884752;29;20121;-66
2022/10/09 14:16:42;;;;;;;5.03;1.77;;;;;;;;;;4900589;29;20570;-65
2022/10/09 14:19:08;;;;;;;2.13;1.77;;;;;;;;;;4900016;29;20077;-65
2022/10/09 14:21:35;;;;;;;4.32;1.80;;;;;;;;;;4898488;29;20104;-65
2022/10/09 14:24:02;;;;;;;5.18;1.75;;;;;;;;;;4898817;29;20045;-66
2022/10/09 14:26:28;;;;;;;4.50;1.95;;;;;;;;;;4898652;29;20052;-65
2022/10/09 14:28:57;;;;;;;4.28;1.73;;;;;;;;;;4898671;29;20045;-64
2022/10/09 14:31:24;;;;;;;3.28;1.90;;;;;;;;;;4899620;29;20045;-66
2022/10/09 14:33:54;;;;;;;4.07;2.03;;;;;;;;;;4898951;29;20036;-66
2022/10/09 14:36:20;;;;;;;3.50;1.83;;;;;;;;;;4898723;29;20040;-66
2022/10/09 14:38:47;;;;;;;2.78;1.90;;;;;;;;;;4898131;29;20056;-65
2022/10/09 14:41:14;;;;;;;20.48;13.45;;;;;;;;;;4897655;29;20052;-65
2022/10/09 14:43:40;;;;;;;6.82;2.10;;;;;;;;;;4898048;29;20080;-65
2022/10/09 14:46:10;;;;;;;4.10;1.98;;;;;;;;;;4898016;29;20525;-65
2022/10/09 14:48:38;;;;;;;4.68;2.20;;;;;;;;;;4899761;29;20056;-65
2022/10/09 14:51:06;;;;;;;5.00;1.88;;;;;;;;;;4897553;29;20067;-63
2022/10/09 14:53:32;;;;;;;5.78;2.22;;;;;;;;;;4898158;29;20120;-64
2022/10/09 14:56:00;;;;;;;3.40;1.67;;;;;;;;;;4898868;29;20520;-63
2022/10/09 14:58:27;;;;;;;6.13;2.53;;;;;;;;;;4898575;29;20057;-64